METAR AND TAF INFORMATION
METAR FOR MDPP
ADDS - METARS form results

(2308 UTC 22 May 2018)
Data provider http://aviationweather.gov/adds/metars/
 
METAR text: MDPP 222300Z 09012KT 9999 FW020 27/24 Q1015
Conditions at: MDPP (PUERTO PLATA IN , DO) observed 2300 UTC 22 May 2018
Temperature: 27.0°C (81°F)
Dewpoint: 24.0°C (75°F) [RH = 84%]
Pressure (altimeter): 29.97 inches Hg (1015.0 mb)
Winds: from the E (90 degrees) at 14 MPH (12 knots; 6.2 m/s)
Visibility: 6 or more miles (10+ km)
Ceiling: unknown
Clouds: missing
Weather: no significant weather observed at this time

Forecast for: MDPP (PUERTO PLATA IN , DO)
Text: TAF MDPP 222200Z 2300/2400 09015KT 9999 FEW022
Forecast period: 0000 UTC 23 May 2018 to 0000 UTC 24 May 2018
Forecast type: FROM: standard forecast or significant change
Winds: from the E (90 degrees) at 17 MPH (15 knots; 7.8 m/s)
Visibility: 6 or more miles (10+ km)
Clouds: few clouds at 2200 feet AGL
Weather: no significant weather forecast for this period
Forecast for: MDPP (PUERTO PLATA IN , DO)
Text: TAF MDPP 222200Z 2300/2400 09015KT 9999 FEW022
Forecast period: 0000 UTC 23 May 2018 to 0000 UTC 24 May 2018
Forecast type: FROM: standard forecast or significant change
Winds: from the E (90 degrees) at 17 MPH (15 knots; 7.8 m/s)
Visibility: 6 or more miles (10+ km)
Clouds: few clouds at 2200 feet AGL
Weather: no significant weather forecast for this period

 AIRPORT MAP

 RUNWAY INFORMATION
Runway 08 Runway length 10108 ft Runway width 151 ft
Runway elevation 17 ft Runway displaced threshold 0 ft Runway heading 73
Runway 26 Runway length 10108 ft Runway width 151 ft
Runway elevation 15 ft Runway displaced threshold 0 ft Runway heading 253

 AIRPORT FREQUENCIES
Type APP Name PUERTO PLA Frequency 119 MHZ
Type GND Name GND Frequency 121.9 MHZ
Type TWR Name PUERTO PLA Frequency 118 MHZ

 AIRPORT NEAR NAVIGATION AIDS
Type NDB Name Puerto Plata Frequency 450 KHZ
Type VOR-DME Name Puerto Plata Frequency 115100 KHZ



Powered by Virtual Airlines Manager [v2.6.2]